createdAt,value
2018-05-18T00:00:18.781Z,13.40
2018-05-18T00:02:46.385Z,13.30
2018-05-18T00:05:14.032Z,13.40
2018-05-18T00:07:41.660Z,13.40
2018-05-18T00:10:09.302Z,13.40
2018-05-18T00:12:36.915Z,13.40
2018-05-18T00:15:04.543Z,13.30
2018-05-18T00:17:32.200Z,13.30
2018-05-18T00:19:59.820Z,13.30
2018-05-18T00:22:27.435Z,13.20
2018-05-18T00:24:55.814Z,13.30
2018-05-18T00:27:24.219Z,13.30
2018-05-18T00:29:51.847Z,13.30
2018-05-18T00:32:19.450Z,13.30
2018-05-18T00:34:47.070Z,13.30
2018-05-18T00:37:14.710Z,13.30
2018-05-18T00:39:42.316Z,13.20
2018-05-18T00:42:09.950Z,13.10
2018-05-18T00:44:37.598Z,13.10
2018-05-18T00:47:05.218Z,12.90
2018-05-18T00:49:32.869Z,12.90
2018-05-18T00:52:00.510Z,12.90
2018-05-18T00:54:28.930Z,12.80
2018-05-18T00:56:56.541Z,12.80
2018-05-18T00:59:24.909Z,12.80
2018-05-18T01:01:52.525Z,12.80
2018-05-18T01:04:20.118Z,12.90
2018-05-18T01:06:47.755Z,12.80
2018-05-18T01:09:15.360Z,12.90
2018-05-18T01:11:43.730Z,12.60
2018-05-18T01:14:12.154Z,12.70
2018-05-18T01:16:39.763Z,12.70
2018-05-18T01:19:07.449Z,12.50
2018-05-18T01:21:35.831Z,12.50
2018-05-18T01:24:03.485Z,12.40
2018-05-18T01:26:31.881Z,12.60
2018-05-18T01:28:59.510Z,12.60
2018-05-18T01:31:27.906Z,12.60
2018-05-18T01:33:55.535Z,12.60
2018-05-18T01:36:23.168Z,12.60
2018-05-18T01:38:50.837Z,12.60
2018-05-18T01:41:18.450Z,12.50
2018-05-18T01:43:46.101Z,12.60
2018-05-18T01:46:14.496Z,12.60
2018-05-18T01:48:42.120Z,12.60
2018-05-18T01:51:09.759Z,12.50
2018-05-18T01:53:37.374Z,12.40
2018-05-18T01:56:05.013Z,12.30
2018-05-18T01:58:33.417Z,12.20
2018-05-18T02:01:00.997Z,12.20
2018-05-18T02:03:28.662Z,12.30
2018-05-18T02:05:56.271Z,12.40
2018-05-18T02:08:24.699Z,12.20
2018-05-18T02:10:52.347Z,12.10
2018-05-18T02:13:19.961Z,12.00
2018-05-18T02:15:47.591Z,11.90
2018-05-18T02:18:15.200Z,12.00
2018-05-18T02:20:43.603Z,12.10
2018-05-18T02:23:11.227Z,12.10
2018-05-18T02:25:39.660Z,11.80
2018-05-18T02:28:07.246Z,11.70
2018-05-18T02:30:34.871Z,11.80
2018-05-18T02:33:02.507Z,11.80
2018-05-18T02:35:30.140Z,11.80
2018-05-18T02:37:57.797Z,11.90
2018-05-18T02:40:25.411Z,11.70
2018-05-18T02:42:53.047Z,11.70
2018-05-18T02:45:20.694Z,11.70
2018-05-18T02:47:49.091Z,11.90
2018-05-18T02:50:16.750Z,11.90
2018-05-18T02:52:44.397Z,11.80
2018-05-18T02:55:12.788Z,11.80
2018-05-18T02:57:40.433Z,11.80
2018-05-18T03:00:08.830Z,11.80
2018-05-18T03:02:36.445Z,11.80
2018-05-18T03:05:04.096Z,11.70
2018-05-18T03:07:31.722Z,11.70
2018-05-18T03:09:59.358Z,11.70
2018-05-18T03:12:27.716Z,11.80
2018-05-18T03:14:55.405Z,11.80
2018-05-18T03:17:22.997Z,11.80
2018-05-18T03:19:50.599Z,11.80
2018-05-18T03:22:18.209Z,11.70
2018-05-18T03:24:45.839Z,11.70
2018-05-18T03:27:14.238Z,11.40
2018-05-18T03:29:41.863Z,11.40
2018-05-18T03:32:10.250Z,11.60
2018-05-18T03:34:38.720Z,11.60
2018-05-18T03:37:07.090Z,11.60
2018-05-18T03:39:34.690Z,11.60
2018-05-18T03:42:02.291Z,11.60
2018-05-18T03:44:29.879Z,11.70
2018-05-18T03:46:58.276Z,11.60
2018-05-18T03:49:25.890Z,11.60
2018-05-18T03:51:53.539Z,11.50
2018-05-18T03:54:21.169Z,11.50
2018-05-18T03:56:50.982Z,11.50
2018-05-18T03:59:18.609Z,11.40
2018-05-18T04:01:58.697Z,11.60
2018-05-18T04:04:38.066Z,11.50
2018-05-18T04:07:18.447Z,11.60
2018-05-18T04:09:46.089Z,11.60
2018-05-18T04:12:13.701Z,11.70
2018-05-18T04:14:41.317Z,11.70
2018-05-18T04:17:08.918Z,11.60
2018-05-18T04:19:36.534Z,11.70
2018-05-18T04:22:04.250Z,11.60
2018-05-18T04:24:31.859Z,11.50
2018-05-18T04:26:59.497Z,11.40
2018-05-18T04:29:27.129Z,11.40
2018-05-18T04:31:54.732Z,11.30
2018-05-18T04:34:22.381Z,11.30
2018-05-18T04:36:50.001Z,11.40
2018-05-18T04:39:17.620Z,11.50
2018-05-18T04:41:45.215Z,11.60
2018-05-18T04:44:12.851Z,11.60
2018-05-18T04:46:40.495Z,11.70
2018-05-18T04:49:08.100Z,11.70
2018-05-18T04:51:35.691Z,11.80
2018-05-18T04:54:03.312Z,11.80
2018-05-18T04:56:31.700Z,11.80
2018-05-18T04:58:59.381Z,11.80
2018-05-18T05:01:27.027Z,11.80
2018-05-18T05:03:54.660Z,11.80
2018-05-18T05:06:23.048Z,11.90
2018-05-18T05:08:51.430Z,12.00
2018-05-18T05:11:19.829Z,12.00
2018-05-18T05:13:47.467Z,12.00
2018-05-18T05:16:15.201Z,11.90
2018-05-18T05:18:42.763Z,11.90
2018-05-18T05:21:10.367Z,12.00
2018-05-18T05:23:37.990Z,12.10
2018-05-18T05:26:05.713Z,12.10
2018-05-18T05:28:33.328Z,12.10
2018-05-18T05:31:01.707Z,12.30
2018-05-18T05:33:29.300Z,12.30
2018-05-18T05:35:56.941Z,12.30
2018-05-18T05:38:24.567Z,12.40
2018-05-18T05:40:52.179Z,12.40
2018-05-18T05:43:19.788Z,12.50
2018-05-18T05:45:47.422Z,12.40
2018-05-18T05:48:15.031Z,12.40
2018-05-18T05:50:43.412Z,12.20
2018-05-18T05:53:11.030Z,12.20
2018-05-18T05:55:38.678Z,12.20
2018-05-18T05:58:06.249Z,12.30
2018-05-18T06:00:33.884Z,12.40
2018-05-18T06:03:01.503Z,12.60
2018-05-18T06:05:29.865Z,12.80
2018-05-18T06:07:57.467Z,12.90
2018-05-18T06:10:25.185Z,13.00
2018-05-18T06:12:52.826Z,13.00
2018-05-18T06:15:20.449Z,13.10
2018-05-18T06:17:48.044Z,13.20
2018-05-18T06:20:15.657Z,13.00
2018-05-18T06:22:43.307Z,13.20
2018-05-18T06:25:10.988Z,13.20
2018-05-18T06:27:38.593Z,13.30
2018-05-18T06:30:06.250Z,13.40
2018-05-18T06:32:33.849Z,13.40
2018-05-18T06:35:02.297Z,13.60
2018-05-18T06:37:29.898Z,13.50
2018-05-18T06:39:57.547Z,13.60
2018-05-18T06:42:25.913Z,13.60
2018-05-18T06:44:54.318Z,13.70
2018-05-18T06:47:21.967Z,13.70
2018-05-18T06:49:50.392Z,13.90
2018-05-18T06:52:17.984Z,13.90
2018-05-18T06:54:45.708Z,14.00
2018-05-18T06:57:13.328Z,14.20
2018-05-18T06:59:40.984Z,14.20
2018-05-18T07:02:09.407Z,14.30
2018-05-18T07:04:37.037Z,14.30
2018-05-18T07:07:04.685Z,14.30
2018-05-18T07:09:33.044Z,14.30
2018-05-18T07:12:00.688Z,14.30
2018-05-18T07:14:28.337Z,14.40
2018-05-18T07:16:55.946Z,14.60
2018-05-18T07:19:24.327Z,14.70
2018-05-18T07:21:51.942Z,14.70
2018-05-18T07:24:19.568Z,14.80
2018-05-18T07:26:47.175Z,14.80
2018-05-18T07:29:14.805Z,14.80
2018-05-18T07:31:42.419Z,14.80
2018-05-18T07:34:10.799Z,14.90
2018-05-18T07:36:39.219Z,14.90
2018-05-18T07:39:06.885Z,14.80
2018-05-18T07:41:34.568Z,15.00
2018-05-18T07:44:02.217Z,15.10
2018-05-18T07:46:29.849Z,15.20
2018-05-18T07:48:57.454Z,15.40
2018-05-18T07:51:25.120Z,15.50
2018-05-18T07:53:52.731Z,15.60
2018-05-18T07:56:20.370Z,15.70
2018-05-18T07:58:47.981Z,15.80
2018-05-18T08:01:15.609Z,16.00
2018-05-18T08:03:43.282Z,16.20
2018-05-18T08:06:10.905Z,16.40
2018-05-18T08:08:39.266Z,16.60
2018-05-18T08:11:06.894Z,16.50
2018-05-18T08:13:34.556Z,16.70
2018-05-18T08:16:02.209Z,16.80
2018-05-18T08:18:29.816Z,16.80
2018-05-18T08:20:58.199Z,16.90
2018-05-18T08:23:38.626Z,17.00
2018-05-18T08:26:06.220Z,17.00
2018-05-18T08:28:46.465Z,17.20
2018-05-18T08:31:14.081Z,17.20
2018-05-18T08:33:41.750Z,17.40
2018-05-18T08:36:09.370Z,17.60
2018-05-18T08:38:37.070Z,17.60
2018-05-18T08:41:05.390Z,17.50
2018-05-18T08:43:33.790Z,17.50
2018-05-18T08:46:01.432Z,17.50
2018-05-18T08:48:29.815Z,17.40
2018-05-18T08:50:58.240Z,17.50
2018-05-18T08:53:25.870Z,17.50
2018-05-18T08:55:53.506Z,17.60
2018-05-18T08:58:21.900Z,17.90
2018-05-18T09:00:49.549Z,17.90
2018-05-18T09:03:17.950Z,18.20
2018-05-18T09:05:45.552Z,18.20
2018-05-18T09:08:13.190Z,18.30
2018-05-18T09:10:40.830Z,18.30
2018-05-18T09:13:08.450Z,18.40
2018-05-18T09:15:36.100Z,18.40
2018-05-18T09:18:03.712Z,18.40
2018-05-18T09:20:31.341Z,18.40
2018-05-18T09:22:59.762Z,18.30
2018-05-18T09:25:27.430Z,18.30
2018-05-18T09:27:55.062Z,18.30
2018-05-18T09:30:22.681Z,18.30
2018-05-18T09:32:50.297Z,18.30
2018-05-18T09:35:17.959Z,18.30
2018-05-18T09:37:45.579Z,18.20
2018-05-18T09:40:13.201Z,18.30
2018-05-18T09:42:40.817Z,18.30
2018-05-18T09:45:09.252Z,18.50
2018-05-18T09:47:36.890Z,18.50
2018-05-18T09:50:04.512Z,18.60
2018-05-18T09:52:32.931Z,18.60
2018-05-18T09:55:00.713Z,18.60
2018-05-18T09:57:28.191Z,18.60
2018-05-18T09:59:55.878Z,18.70
2018-05-18T10:02:24.269Z,18.80
2018-05-18T10:04:51.877Z,18.80
2018-05-18T10:07:19.543Z,18.90
2018-05-18T10:09:47.201Z,18.90
2018-05-18T10:12:14.831Z,19.00
2018-05-18T10:14:42.530Z,19.10
2018-05-18T10:17:10.162Z,19.20
2018-05-18T10:19:37.803Z,19.30
2018-05-18T10:22:05.410Z,19.40
2018-05-18T10:24:33.055Z,19.50
2018-05-18T10:27:00.698Z,19.70
2018-05-18T10:29:28.317Z,19.80
2018-05-18T10:31:56.705Z,20.00
2018-05-18T10:34:24.365Z,20.00
2018-05-18T10:36:52.002Z,20.10
2018-05-18T10:39:19.637Z,20.20
2018-05-18T10:41:47.270Z,20.30
2018-05-18T10:44:14.858Z,20.30
2018-05-18T10:46:42.478Z,20.30
2018-05-18T10:49:10.142Z,20.40
2018-05-18T10:51:37.749Z,20.30
2018-05-18T10:54:05.419Z,20.20
2018-05-18T10:56:33.022Z,20.20
2018-05-18T10:59:00.650Z,20.20
2018-05-18T11:01:29.090Z,20.20
2018-05-18T11:03:56.692Z,20.20
2018-05-18T11:06:25.075Z,20.20
2018-05-18T11:08:53.469Z,20.20
2018-05-18T11:11:21.100Z,20.20
2018-05-18T11:13:48.740Z,20.20
2018-05-18T11:16:16.370Z,20.10
2018-05-18T11:18:44.036Z,20.10
2018-05-18T11:21:11.623Z,20.00
2018-05-18T11:23:39.270Z,20.00
2018-05-18T11:26:06.903Z,19.90
2018-05-18T11:28:34.507Z,19.90
2018-05-18T11:31:02.132Z,19.90
2018-05-18T11:33:29.781Z,19.90
2018-05-18T11:35:57.439Z,19.80
2018-05-18T11:38:25.090Z,19.80
2018-05-18T11:40:52.766Z,19.70
2018-05-18T11:43:20.484Z,19.60
2018-05-18T11:45:48.042Z,19.50
2018-05-18T11:48:16.371Z,19.30
2018-05-18T11:50:44.009Z,19.20
2018-05-18T11:53:12.400Z,19.20
2018-05-18T11:55:40.031Z,19.10
2018-05-18T11:58:08.422Z,19.30
2018-05-18T12:00:36.054Z,19.20
2018-05-18T12:03:03.740Z,19.20
2018-05-18T12:05:32.175Z,19.30
2018-05-18T12:07:59.835Z,19.30
2018-05-18T12:10:27.453Z,19.40
2018-05-18T12:12:55.060Z,19.40
2018-05-18T12:15:22.750Z,19.50
2018-05-18T12:17:51.149Z,19.30
2018-05-18T12:20:18.771Z,19.30
2018-05-18T12:22:46.401Z,19.30
2018-05-18T12:25:14.009Z,19.20
2018-05-18T12:27:42.449Z,18.90
2018-05-18T12:30:10.092Z,18.90
2018-05-18T12:32:37.712Z,18.80
2018-05-18T12:35:06.087Z,18.40
2018-05-18T12:37:34.491Z,18.20
2018-05-18T12:40:02.121Z,18.20
2018-05-18T12:42:29.758Z,18.10
2018-05-18T12:44:57.349Z,18.00
2018-05-18T12:47:25.752Z,17.90
2018-05-18T12:49:53.369Z,17.90
2018-05-18T12:52:20.984Z,18.00
2018-05-18T12:54:48.597Z,18.00
2018-05-18T12:57:16.246Z,18.00
2018-05-18T12:59:43.861Z,18.00
2018-05-18T13:02:11.442Z,18.00
2018-05-18T13:04:39.054Z,18.00
2018-05-18T13:07:07.478Z,18.10
2018-05-18T13:09:35.101Z,18.10
2018-05-18T13:12:03.468Z,18.20
2018-05-18T13:14:31.845Z,18.20
2018-05-18T13:17:00.248Z,18.30
2018-05-18T13:19:27.900Z,18.30
2018-05-18T13:21:55.506Z,18.50
2018-05-18T13:24:23.126Z,18.80
2018-05-18T13:26:50.801Z,19.20
2018-05-18T13:29:18.463Z,19.50
2018-05-18T13:31:46.069Z,19.80
2018-05-18T13:34:13.681Z,19.90
2018-05-18T13:36:41.314Z,20.20
2018-05-18T13:39:09.688Z,20.80
2018-05-18T13:41:38.097Z,21.00
2018-05-18T13:44:05.697Z,21.00
2018-05-18T13:46:33.290Z,21.20
2018-05-18T13:49:01.646Z,21.80
2018-05-18T13:51:29.294Z,21.70
2018-05-18T13:53:56.960Z,21.90
2018-05-18T13:56:24.564Z,21.80
2018-05-18T13:58:52.200Z,21.70
2018-05-18T14:01:20.589Z,21.20
2018-05-18T14:03:49.008Z,21.20
2018-05-18T14:06:16.650Z,21.20
2018-05-18T14:08:44.250Z,21.10
2018-05-18T14:11:11.846Z,21.00
2018-05-18T14:13:40.231Z,21.20
2018-05-18T14:16:07.851Z,21.20
2018-05-18T14:18:35.485Z,21.70
2018-05-18T14:21:03.191Z,22.10
2018-05-18T14:23:30.817Z,22.60
2018-05-18T14:25:58.489Z,22.90
2018-05-18T14:28:26.087Z,23.20
2018-05-18T14:30:54.520Z,23.60
2018-05-18T14:33:22.138Z,23.50
2018-05-18T14:35:49.720Z,23.50
2018-05-18T14:38:17.340Z,23.40
2018-05-18T14:40:45.753Z,23.60
2018-05-18T14:43:13.409Z,23.60
2018-05-18T14:45:41.010Z,23.80
2018-05-18T14:48:08.614Z,23.80
2018-05-18T14:50:36.256Z,23.60
2018-05-18T14:53:04.638Z,23.00
2018-05-18T14:55:33.059Z,22.70
2018-05-18T14:58:00.650Z,22.70
2018-05-18T15:00:28.295Z,22.40
2018-05-18T15:02:55.898Z,22.10
2018-05-18T15:05:24.300Z,21.70
2018-05-18T15:07:52.016Z,21.70
2018-05-18T15:10:20.390Z,21.40
2018-05-18T15:12:48.010Z,21.30
2018-05-18T15:15:15.657Z,21.20
2018-05-18T15:17:43.261Z,21.00
2018-05-18T15:20:10.937Z,20.90
2018-05-18T15:22:38.564Z,20.80
2018-05-18T15:25:06.187Z,20.80
2018-05-18T15:27:34.618Z,20.70
2018-05-18T15:30:02.224Z,20.70
2018-05-18T15:32:29.875Z,20.70
2018-05-18T15:34:58.260Z,20.60
2018-05-18T15:37:26.701Z,20.60
2018-05-18T15:39:54.269Z,20.60
2018-05-18T15:42:21.889Z,20.60
2018-05-18T15:44:49.509Z,20.60
2018-05-18T15:47:17.908Z,20.60
2018-05-18T15:49:45.523Z,20.60
2018-05-18T15:52:13.138Z,20.60
2018-05-18T15:54:40.791Z,20.60
2018-05-18T15:57:08.436Z,20.50
2018-05-18T15:59:36.794Z,20.40
2018-05-18T16:02:04.395Z,20.40
2018-05-18T16:04:32.034Z,20.40
2018-05-18T16:07:00.400Z,20.40
2018-05-18T16:09:28.801Z,20.40
2018-05-18T16:11:56.430Z,20.30
2018-05-18T16:14:24.061Z,20.40
2018-05-18T16:16:51.670Z,20.40
2018-05-18T16:19:20.041Z,20.30
2018-05-18T16:21:48.449Z,20.30
2018-05-18T16:24:16.048Z,20.30
2018-05-18T16:26:43.630Z,20.30
2018-05-18T16:29:11.273Z,20.20
2018-05-18T16:31:38.861Z,20.10
2018-05-18T16:34:07.271Z,20.00
2018-05-18T16:36:34.890Z,20.00
2018-05-18T16:39:03.365Z,19.90
2018-05-18T16:41:30.970Z,19.90
2018-05-18T16:43:58.593Z,19.90
2018-05-18T16:46:27.013Z,19.90
2018-05-18T16:48:54.651Z,19.80
2018-05-18T16:51:22.281Z,19.80
2018-05-18T16:53:49.886Z,19.90
2018-05-18T16:56:17.506Z,19.90
2018-05-18T16:58:45.148Z,19.90
2018-05-18T17:01:12.766Z,19.90
2018-05-18T17:03:40.389Z,20.00
2018-05-18T17:06:07.993Z,20.00
2018-05-18T17:08:35.601Z,19.90
2018-05-18T17:11:03.247Z,19.90
2018-05-18T17:13:30.888Z,19.90
2018-05-18T17:15:58.501Z,19.90
2018-05-18T17:18:26.901Z,19.80
2018-05-18T17:20:54.535Z,19.80
2018-05-18T17:23:22.964Z,19.80
2018-05-18T17:25:50.588Z,19.80
2018-05-18T17:28:18.207Z,19.80
2018-05-18T17:30:45.845Z,19.70
2018-05-18T17:33:14.234Z,19.60
2018-05-18T17:35:41.887Z,19.60
2018-05-18T17:38:09.505Z,19.40
2018-05-18T17:40:37.898Z,19.30
2018-05-18T17:43:05.531Z,19.20
2018-05-18T17:45:33.989Z,19.40
2018-05-18T17:48:01.668Z,19.30
2018-05-18T17:50:29.250Z,19.30
2018-05-18T17:52:56.872Z,19.10
2018-05-18T17:55:24.497Z,18.90
2018-05-18T17:57:52.130Z,18.70
2018-05-18T18:00:19.967Z,18.50
2018-05-18T18:02:47.601Z,18.40
2018-05-18T18:05:15.238Z,18.20
2018-05-18T18:07:42.870Z,18.20
2018-05-18T18:10:11.275Z,18.10
2018-05-18T18:12:38.913Z,18.10
2018-05-18T18:15:07.306Z,18.00
2018-05-18T18:17:34.951Z,18.00
2018-05-18T18:20:03.450Z,18.00
2018-05-18T18:22:31.142Z,17.80
2018-05-18T18:24:58.740Z,17.70
2018-05-18T18:27:29.787Z,17.60
2018-05-18T18:29:57.788Z,17.60
2018-05-18T18:32:25.422Z,17.60
2018-05-18T18:34:53.779Z,17.40
2018-05-18T18:37:21.389Z,17.40
2018-05-18T18:39:49.810Z,17.40
2018-05-18T18:42:19.404Z,17.40
2018-05-18T18:44:48.752Z,17.30
2018-05-18T18:47:17.633Z,17.20
2018-05-18T18:49:45.991Z,17.10
2018-05-18T18:52:13.862Z,17.00
2018-05-18T18:54:41.802Z,17.00
2018-05-18T18:57:09.589Z,17.10
2018-05-18T18:59:38.980Z,17.00
2018-05-18T19:02:06.968Z,16.90
2018-05-18T19:04:34.639Z,16.90
2018-05-18T19:07:03.896Z,16.90
2018-05-18T19:09:32.670Z,16.80
2018-05-18T19:12:03.264Z,16.70
2018-05-18T19:14:31.838Z,16.60
2018-05-18T19:17:00.223Z,16.70
2018-05-18T19:19:27.859Z,16.70
2018-05-18T19:21:55.556Z,16.70
2018-05-18T19:24:23.234Z,16.50
2018-05-18T19:26:51.604Z,16.60
2018-05-18T19:29:19.249Z,16.60
2018-05-18T19:31:46.878Z,16.50
2018-05-18T19:34:15.261Z,16.50
2018-05-18T19:36:42.916Z,16.40
2018-05-18T19:39:10.542Z,16.40
2018-05-18T19:41:38.200Z,16.50
2018-05-18T19:44:05.866Z,16.50
2018-05-18T19:46:33.517Z,16.50
2018-05-18T19:49:01.163Z,16.40
2018-05-18T19:51:28.888Z,16.20
2018-05-18T19:53:57.282Z,16.20
2018-05-18T19:56:25.718Z,16.20
2018-05-18T19:58:53.359Z,16.20
2018-05-18T20:01:20.980Z,16.30
2018-05-18T20:03:49.366Z,16.20
2018-05-18T20:06:16.974Z,16.20
2018-05-18T20:08:44.618Z,16.20
2018-05-18T20:11:12.260Z,16.10
2018-05-18T20:13:39.880Z,16.00
2018-05-18T20:16:07.517Z,15.90
2018-05-18T20:18:35.131Z,16.00
2018-05-18T20:21:02.790Z,15.90
2018-05-18T20:23:30.412Z,15.90
2018-05-18T20:25:58.017Z,15.80
2018-05-18T20:28:25.619Z,15.80
2018-05-18T20:30:53.310Z,15.80
2018-05-18T20:33:21.709Z,15.70
2018-05-18T20:35:49.350Z,15.70
2018-05-18T20:38:17.826Z,15.70
2018-05-18T20:40:45.655Z,15.70
2018-05-18T20:43:13.272Z,15.70
2018-05-18T20:45:41.677Z,15.60
2018-05-18T20:48:09.298Z,15.60
2018-05-18T20:50:37.706Z,15.60
2018-05-18T20:53:05.335Z,15.60
2018-05-18T20:55:33.705Z,15.50
2018-05-18T20:58:01.370Z,15.40
2018-05-18T21:00:29.758Z,15.30
2018-05-18T21:02:58.139Z,15.20
2018-05-18T21:05:25.766Z,15.20
2018-05-18T21:07:53.397Z,15.20
2018-05-18T21:10:21.017Z,15.20
2018-05-18T21:12:49.378Z,15.30
2018-05-18T21:15:17.060Z,15.20
2018-05-18T21:17:44.684Z,15.30
2018-05-18T21:20:12.297Z,15.30
2018-05-18T21:22:39.927Z,15.30
2018-05-18T21:25:08.310Z,15.10
2018-05-18T21:27:36.708Z,15.10
2018-05-18T21:30:04.327Z,15.10
2018-05-18T21:32:31.960Z,15.10
2018-05-18T21:34:59.600Z,15.10
2018-05-18T21:37:27.205Z,15.10
2018-05-18T21:39:54.836Z,15.20
2018-05-18T21:42:22.461Z,15.10
2018-05-18T21:44:50.892Z,15.00
2018-05-18T21:47:18.545Z,15.00
2018-05-18T21:49:46.180Z,15.10
2018-05-18T21:52:13.800Z,15.10
2018-05-18T21:54:42.123Z,15.10
2018-05-18T21:57:09.721Z,15.10
2018-05-18T21:59:37.337Z,15.10
2018-05-18T22:02:04.976Z,15.10
2018-05-18T22:04:33.354Z,14.90
2018-05-18T22:07:01.742Z,15.00
2018-05-18T22:09:29.329Z,14.90
2018-05-18T22:11:57.000Z,14.90
2018-05-18T22:14:24.613Z,15.00
2018-05-18T22:16:53.000Z,14.70
2018-05-18T22:19:20.610Z,14.70
2018-05-18T22:21:48.229Z,14.70
2018-05-18T22:24:15.875Z,14.50
2018-05-18T22:26:44.263Z,14.50
2018-05-18T22:29:11.880Z,14.50
2018-05-18T22:31:39.511Z,14.60
2018-05-18T22:34:07.110Z,14.70
2018-05-18T22:36:34.770Z,14.70
2018-05-18T22:39:02.410Z,14.70
2018-05-18T22:41:30.030Z,14.70
2018-05-18T22:43:57.717Z,14.70
2018-05-18T22:46:25.330Z,14.70
2018-05-18T22:48:53.740Z,14.50
2018-05-18T22:51:21.387Z,14.50
2018-05-18T22:53:49.058Z,14.40
2018-05-18T22:56:16.660Z,14.40
2018-05-18T22:58:44.291Z,14.30
2018-05-18T23:01:11.950Z,14.30
2018-05-18T23:03:39.594Z,14.20
2018-05-18T23:06:07.237Z,14.20
2018-05-18T23:08:35.661Z,14.20
2018-05-18T23:11:04.036Z,14.00
2018-05-18T23:13:31.658Z,14.00
2018-05-18T23:15:59.269Z,13.90
2018-05-18T23:18:26.919Z,13.90
2018-05-18T23:20:54.517Z,13.90
2018-05-18T23:23:22.897Z,13.80
2018-05-18T23:25:51.403Z,13.80
2018-05-18T23:28:18.943Z,13.80
2018-05-18T23:30:47.320Z,13.70
2018-05-18T23:33:15.720Z,13.60
2018-05-18T23:35:43.328Z,13.60
2018-05-18T23:38:10.975Z,13.50
2018-05-18T23:40:38.620Z,13.30
2018-05-18T23:43:06.201Z,13.30
2018-05-18T23:45:33.816Z,13.40
2018-05-18T23:48:01.439Z,13.40
2018-05-18T23:50:29.710Z,13.40
2018-05-18T23:52:57.316Z,13.40
2018-05-18T23:55:24.956Z,13.40
2018-05-18T23:57:53.332Z,13.30
